Terminal Aerodrome Forecast
Issued by NWS

Home | Current Version | Previous Version | Text Only | Print | Product List | Glossary Off
Versions: 1 2 3 4 5 6 7 8 9 10 11 12 13 14

204
FTUS43 KBIS 252321
TAFMOT
TAF
KMOT 252321Z 2600/2624 02011G19KT P6SM BKN040
     FM260400 02007KT P6SM BKN050
     FM261300 36011KT P6SM BKN025
     FM261800 02013KT P6SM SCT035=

USA.gov is the U.S. government's official web portal to all federal, state and local government web resources and services.